Annette Island, AK

7:52 PM AKDT on July 30, 2015 (GMT -0800)
Annette Island | | Change Station
CLOSE
Current Station
Airport
Location: Annette Island,
Elevation: 112 ft
Nearby Weather Stations

Elev 112 ft 55.04 °N, 131.57 °W | Updated 59 minutes ago

Light Rain
Light Rain Mist
57 °F
Feels Like 57 °F
N
14
Wind Variable Wind from SSE
Gusts 24 mph

Today
High -- | Low -- °F
--% Chance of Precip.
Yesterday
High -- | Low -- °F
Precip. -- in
4:51 AM 8:52 PM
Full, 100% visible
Pressure 30.09 in
Visibility 4.0 miles
Clouds Overcast 400 ft
Dew Point 57 °F
Humidity 100%
Rainfall 0.80 in
Snow Depth Not available.
UV 0 out of 12
Pollen Not available.
Air Quality Not available.
Flu Activity Not available.
METAR PANT 310253Z 15012G21KT 4SM -RA BR OVC004 14/14 A3009 RMK SLP190 P0003 60018 T01390139 58015 VIA AUTODIAL

More Conditions Fewer Conditions

Pressure 30.09 in
Visibility 4.0 miles
Clouds Overcast 400 ft
Dew Point 57 °F
Humidity 100%
Rainfall 0.80 in
Snow Depth Not available.
UV 0 out of 12
Pollen Not available.
Air Quality Not available.
Flu Activity Not available.
METAR PANT 310253Z 15012G21KT 4SM -RA BR OVC004 14/14 A3009 RMK SLP190 P0003 60018 T01390139 58015 VIA AUTODIAL

More Conditions Fewer Conditions

10-Day Weather Forecast

×

Almanac

Astronomy

Jul. 30, 2015 Rise Set
Actual Time
Civil Twilight
Nautical Twilight
Astronomical Twilight
Moon
Length of Visible Light
Length of Day
Tomorrow will be .
, % of the Moon is Illuminated

Today's Extremes

State Highs State Lows

Community

WunderPhotos

Upload Photos

1,842,598 photos uploaded!

WunderBlogs® & News

Nearby

Air Quality

  Air Quality AQ Index Pollutant
Not available.

Snow Depth

Station Depth Elevation

Earthquake Activity

City Distance Mag. Time & Date
Minimum magnitude displayed is 2.5.

Coastal Water Temperatures

Place Temperature

Stations

Nearby Weather Stations

Station Location Temp. Windchill Dew Point Humidity Wind Precip. Elev Updated Type